Housho Maru — JD2281 — position and weather

sailwx.info

Track history (hours):
 
Tides and Currents Weather Stations Pressure Air Temp Water Temp Dewpoint Dewpoint Depression Visibility Wind Speed Wind Dir Waves Ship Positions

Housho Maru

Last reported at 2018-Jul-21 12:51 UTC. Time now 2018-Jul-22 06:57 UTC.
Position N 34°59' E 140°14'.

Length 165 m; draft 6.2 m.

Type: Cargo ship. MMSI: 431200703.

Date/timePositionNaut miles runAvg speedWind from/ knotsBaromVisibWave heightAir tempDewpointWater temp
2018-Jul-21 12:51N 34°59' E 140°14'1221.4
2018-Jul-21 12:17N 34°53' E 140°02'919.5
2018-Jul-21 11:50N 34°51' E 139°51'719.1
2018-Jul-21 11:29N 34°55' E 139°44'919.0
2018-Jul-21 11:00N 35°04' E 139°44'816.9
2018-Jul-21 10:30N 35°13' E 139°46'611.6
2018-Jul-21 10:00N 35°18' E 139°44'714.3
2018-Jul-21 09:31N 35°25' E 139°44'510.8
2018-Jul-21 09:00N 35°30' E 139°46'0 0.6
2018-Jul-21 08:28N 35°30' E 139°45'0 0.0
2018-Jul-21 07:58N 35°30' E 139°45'0 0.0
2018-Jul-21 07:28N 35°30' E 139°45'0 0.0
2018-Jul-21 06:58N 35°30' E 139°45'0 0.1
2018-Jul-21 06:28N 35°30' E 139°45'0 0.1
2018-Jul-21 05:58N 35°30' E 139°45'0 0.0
2018-Jul-21 05:28N 35°30' E 139°45'0 0.0
2018-Jul-21 04:58N 35°30' E 139°45'0 0.0
2018-Jul-21 04:30N 35°30' E 139°45'1 3.0
2018-Jul-21 04:00N 35°30' E 139°44'4 8.3
2018-Jul-21 03:30N 35°26' E 139°43'4 8.0
2018-Jul-21 03:00N 35°23' E 139°39'0 0.0
2018-Jul-21 02:29N 35°23' E 139°39'0 0.0
2018-Jul-21 01:59N 35°23' E 139°39'0 0.0
2018-Jul-21 01:26N 35°23' E 139°39'0 0.0
2018-Jul-21 00:59N 35°23' E 139°39'0 0.0
2018-Jul-21 00:29N 35°23' E 139°39'0 0.0
2018-Jul-20 23:59N 35°23' E 139°39'0 0.0
2018-Jul-20 23:29N 35°23' E 139°39'0 0.0
2018-Jul-20 22:59N 35°23' E 139°39'0 0.0
2018-Jul-20 22:29N 35°23' E 139°39'0 0.2
2018-Jul-20 22:01N 35°23' E 139°39'4 7.5
2018-Jul-20 21:31N 35°21' E 139°42'612.1
2018-Jul-20 21:01N 35°16' E 139°46'714.1
2018-Jul-20 20:30N 35°09' E 139°46'1019.3
2018-Jul-20 20:00N 35°01' E 139°40'1819.4
2018-Jul-20 19:06N 34°51' E 139°22'20 0.6
2018-Jul-19 10:38N 34°45' E 139°45'415.3
2018-Jul-19 10:22N 34°43' E 139°50'512.4
2018-Jul-19 09:59N 34°47' E 139°46'918.6
2018-Jul-19 09:30N 34°55' E 139°41'917.0
2018-Jul-19 09:00N 35°04' E 139°42'816.2
2018-Jul-19 08:30N 35°11' E 139°46'611.8
2018-Jul-19 08:00N 35°17' E 139°45'612.8
2018-Jul-19 07:30N 35°23' E 139°41'2 4.2
2018-Jul-19 07:00N 35°23' E 139°39'0 0.0
2018-Jul-19 06:30N 35°23' E 139°39'0 0.0
2018-Jul-19 06:00N 35°23' E 139°39'0 0.0
2018-Jul-19 05:30N 35°23' E 139°39'0 0.0
2018-Jul-19 05:00N 35°23' E 139°39'0 0.0
2018-Jul-19 04:30N 35°23' E 139°39'0 0.0
2018-Jul-19 04:00N 35°23' E 139°39'0 0.0
2018-Jul-19 03:30N 35°23' E 139°39'0 0.0
2018-Jul-19 03:00N 35°23' E 139°39'0 0.0
2018-Jul-19 02:30N 35°23' E 139°39'0 0.0
2018-Jul-19 02:00N 35°23' E 139°39'0 0.3
2018-Jul-19 01:31N 35°24' E 139°39'510.0
2018-Jul-19 01:01N 35°20' E 139°43'612.1
2018-Jul-19 00:30N 35°15' E 139°47'816.6
2018-Jul-19 00:00N 35°07' E 139°45'1019.8
2018-Jul-18 23:30N 34°57' E 139°44'2514.7
2018-Jul-18 21:49N 35°01' E 140°14'2317.0
2018-Jul-18 20:26N 35°14' E 140°37'818.1
2018-Jul-18 20:00N 35°21' E 140°43'21 0.6
2018-Jul-17 11:42N 35°04' E 140°27'1722.5
2018-Jul-17 10:57N 34°57' E 140°09'1520.0
2018-Jul-17 10:14N 34°52' E 139°52'521.0
2018-Jul-17 10:01N 34°53' E 139°47'1019.5
2018-Jul-17 09:30N 35°02' E 139°43'917.8
2018-Jul-17 09:00N 35°11' E 139°46'611.6
2018-Jul-17 08:30N 35°17' E 139°45'611.9
2018-Jul-17 08:01N 35°22' E 139°42'816.4
2018-Jul-17 07:30N 35°29' E 139°48'2 4.0
2018-Jul-17 06:59N 35°30' E 139°46'0 0.0
2018-Jul-17 06:29N 35°30' E 139°46'0 0.0
2018-Jul-17 05:59N 35°30' E 139°46'0 0.0
2018-Jul-17 05:29N 35°30' E 139°46'0 0.0
2018-Jul-17 04:56N 35°30' E 139°46'0 0.0
2018-Jul-17 04:29N 35°30' E 139°46'0 0.0
2018-Jul-17 03:56N 35°30' E 139°46'0 0.0
2018-Jul-17 03:26N 35°30' E 139°46'0 0.0
2018-Jul-17 02:59N 35°30' E 139°46'0 0.3
2018-Jul-17 02:30N 35°30' E 139°46'4 7.3
2018-Jul-17 02:00N 35°28' E 139°42'511.0
2018-Jul-17 01:30N 35°23' E 139°40'1 2.4
2018-Jul-17 00:59N 35°23' E 139°39'0 0.0
2018-Jul-17 00:29N 35°23' E 139°39'0 0.0
2018-Jul-16 23:29N 35°23' E 139°39'0 0.2
2018-Jul-16 23:00N 35°23' E 139°39'3 6.9
2018-Jul-16 22:31N 35°21' E 139°42'713.1
2018-Jul-16 22:00N 35°16' E 139°46'714.2
2018-Jul-16 21:31N 35°09' E 139°46'917.9
2018-Jul-16 21:00N 35°01' E 139°41'917.9
2018-Jul-16 20:30N 34°55' E 139°33'10 0.3
2018-Jul-15 12:52N 34°45' E 139°36'719.0
2018-Jul-15 12:30N 34°52' E 139°39'918.4
2018-Jul-15 12:00N 35°01' E 139°41'816.6
2018-Jul-15 11:30N 35°08' E 139°44'713.5
2018-Jul-15 11:00N 35°15' E 139°46'611.6
2018-Jul-15 10:30N 35°20' E 139°43'4 8.8
2018-Jul-15 10:00N 35°24' E 139°39'0 0.9
2018-Jul-15 09:29N 35°23' E 139°39'0 0.0
2018-Jul-15 08:59N 35°23' E 139°39'0 0.0
2018-Jul-15 08:29N 35°23' E 139°39'0 0.0
2018-Jul-15 07:59N 35°23' E 139°39'0 0.0
2018-Jul-15 07:29N 35°23' E 139°39'0 0.0
2018-Jul-15 06:59N 35°23' E 139°39'0 0.0
2018-Jul-15 06:29N 35°23' E 139°39'0 0.0
2018-Jul-15 05:59N 35°23' E 139°39'0 0.0
2018-Jul-15 05:29N 35°23' E 139°39'0 0.0
2018-Jul-15 04:59N 35°23' E 139°39'0 0.0
2018-Jul-15 04:29N 35°23' E 139°39'1 2.1
2018-Jul-15 04:00N 35°24' E 139°40'917.5
2018-Jul-15 03:30N 35°28' E 139°49'1019.3
2018-Jul-15 03:00N 35°33' E 139°59'4 0.7
2018-Jul-14 21:36N 35°35' E 140°03'216.7
2018-Jul-14 21:30N 35°34' E 140°01'917.7
2018-Jul-14 21:00N 35°29' E 139°52'815.5
2018-Jul-14 20:30N 35°24' E 139°46'612.0
2018-Jul-14 20:00N 35°18' E 139°45'612.6
2018-Jul-14 19:30N 35°12' E 139°47'1019.3
2018-Jul-14 19:00N 35°03' E 139°41'1019.0
2018-Jul-14 18:30N 34°56' E 139°34'1120.5
2018-Jul-14 17:59N 34°51' E 139°22'4420.3
2018-Jul-14 15:50N 34°31' E 138°35'41 1.4
2018-Jul-13 11:46N 34°37' E 139°24'415.1
2018-Jul-13 11:29N 34°38' E 139°29'917.9
2018-Jul-13 11:00N 34°45' E 139°36'918.8
2018-Jul-13 10:31N 34°53' E 139°39'917.9
2018-Jul-13 10:01N 35°02' E 139°41'816.7
2018-Jul-13 09:30N 35°10' E 139°45'612.9
2018-Jul-13 09:00N 35°16' E 139°45'713.2
2018-Jul-13 08:30N 35°22' E 139°41'2 4.6
2018-Jul-13 07:59N 35°23' E 139°39'0 0.0
2018-Jul-13 07:30N 35°23' E 139°39'0 0.0
2018-Jul-13 07:00N 35°23' E 139°39'0 0.0
2018-Jul-13 06:30N 35°23' E 139°39'0 0.0
2018-Jul-13 06:00N 35°23' E 139°39'0 0.0
2018-Jul-13 05:30N 35°23' E 139°39'0 0.0
2018-Jul-13 05:00N 35°23' E 139°39'0 0.0
2018-Jul-13 04:30N 35°23' E 139°39'0 0.0
2018-Jul-13 04:00N 35°23' E 139°39'0 0.0
2018-Jul-13 03:30N 35°23' E 139°39'0 0.0
2018-Jul-13 03:00N 35°23' E 139°39'0 0.0
2018-Jul-13 02:30N 35°23' E 139°39'0 0.0
2018-Jul-13 02:00N 35°23' E 139°39'0 0.0
2018-Jul-13 01:30N 35°23' E 139°39'0 0.0
2018-Jul-13 01:00N 35°23' E 139°39'0 0.0
2018-Jul-13 00:30N 35°23' E 139°39'0 0.0
2018-Jul-13 00:00N 35°23' E 139°39'0 0.0
2018-Jul-12 23:30N 35°23' E 139°39'0 0.0
2018-Jul-12 23:00N 35°23' E 139°39'0 0.0
2018-Jul-12 22:30N 35°23' E 139°39'2 3.8
2018-Jul-12 22:00N 35°23' E 139°41'510.9
2018-Jul-12 21:30N 35°18' E 139°44'611.7
2018-Jul-12 21:01N 35°13' E 139°47'918.0
2018-Jul-12 20:30N 35°04' E 139°44'916.9
2018-Jul-12 19:59N 34°55' E 139°45'1314.0
2018-Jul-12 19:03N 34°54' E 140°01'215.7
2018-Jul-12 18:54N 34°55' E 140°03'917.2
2018-Jul-12 18:22N 35°00' E 140°12'718.3
2018-Jul-12 18:00N 35°04' E 140°19'  
Track history (hours):
 
Tides and Currents Weather Stations Pressure Air Temp Water Temp Dewpoint Dewpoint Depression Visibility Wind Speed Wind Dir Waves Ship Positions

Housho Maru

Last reported at 2018-Jul-21 12:51 UTC. Time now 2018-Jul-22 06:57 UTC.
Position N 34°59' E 140°14'.

Length 165 m; draft 6.2 m.

Type: Cargo ship. MMSI: 431200703.

Date/timePositionNaut miles runAvg speedWind from/ knotsBaromVisibWave heightAir tempDewpointWater temp
2018-Jul-21 12:51N 34°59' E 140°14'1221.4
2018-Jul-21 12:17N 34°53' E 140°02'919.5
2018-Jul-21 11:50N 34°51' E 139°51'719.1
2018-Jul-21 11:29N 34°55' E 139°44'919.0
2018-Jul-21 11:00N 35°04' E 139°44'816.9
2018-Jul-21 10:30N 35°13' E 139°46'611.6
2018-Jul-21 10:00N 35°18' E 139°44'714.3
2018-Jul-21 09:31N 35°25' E 139°44'510.8
2018-Jul-21 09:00N 35°30' E 139°46'0 0.6
2018-Jul-21 08:28N 35°30' E 139°45'0 0.0
2018-Jul-21 07:58N 35°30' E 139°45'0 0.0
2018-Jul-21 07:28N 35°30' E 139°45'0 0.0
2018-Jul-21 06:58N 35°30' E 139°45'0 0.1
2018-Jul-21 06:28N 35°30' E 139°45'0 0.1
2018-Jul-21 05:58N 35°30' E 139°45'0 0.0
2018-Jul-21 05:28N 35°30' E 139°45'0 0.0
2018-Jul-21 04:58N 35°30' E 139°45'0 0.0
2018-Jul-21 04:30N 35°30' E 139°45'1 3.0
2018-Jul-21 04:00N 35°30' E 139°44'4 8.3
2018-Jul-21 03:30N 35°26' E 139°43'4 8.0
2018-Jul-21 03:00N 35°23' E 139°39'0 0.0
2018-Jul-21 02:29N 35°23' E 139°39'0 0.0
2018-Jul-21 01:59N 35°23' E 139°39'0 0.0
2018-Jul-21 01:26N 35°23' E 139°39'0 0.0
2018-Jul-21 00:59N 35°23' E 139°39'0 0.0
2018-Jul-21 00:29N 35°23' E 139°39'0 0.0
2018-Jul-20 23:59N 35°23' E 139°39'0 0.0
2018-Jul-20 23:29N 35°23' E 139°39'0 0.0
2018-Jul-20 22:59N 35°23' E 139°39'0 0.0
2018-Jul-20 22:29N 35°23' E 139°39'0 0.2
2018-Jul-20 22:01N 35°23' E 139°39'4 7.5
2018-Jul-20 21:31N 35°21' E 139°42'612.1
2018-Jul-20 21:01N 35°16' E 139°46'714.1
2018-Jul-20 20:30N 35°09' E 139°46'1019.3
2018-Jul-20 20:00N 35°01' E 139°40'1819.4
2018-Jul-20 19:06N 34°51' E 139°22'20 0.6
2018-Jul-19 10:38N 34°45' E 139°45'415.3
2018-Jul-19 10:22N 34°43' E 139°50'512.4
2018-Jul-19 09:59N 34°47' E 139°46'918.6
2018-Jul-19 09:30N 34°55' E 139°41'917.0
2018-Jul-19 09:00N 35°04' E 139°42'816.2
2018-Jul-19 08:30N 35°11' E 139°46'611.8
2018-Jul-19 08:00N 35°17' E 139°45'612.8
2018-Jul-19 07:30N 35°23' E 139°41'2 4.2
2018-Jul-19 07:00N 35°23' E 139°39'0 0.0
2018-Jul-19 06:30N 35°23' E 139°39'0 0.0
2018-Jul-19 06:00N 35°23' E 139°39'0 0.0
2018-Jul-19 05:30N 35°23' E 139°39'0 0.0
2018-Jul-19 05:00N 35°23' E 139°39'0 0.0
2018-Jul-19 04:30N 35°23' E 139°39'0 0.0
2018-Jul-19 04:00N 35°23' E 139°39'0 0.0
2018-Jul-19 03:30N 35°23' E 139°39'0 0.0
2018-Jul-19 03:00N 35°23' E 139°39'0 0.0
2018-Jul-19 02:30N 35°23' E 139°39'0 0.0
2018-Jul-19 02:00N 35°23' E 139°39'0 0.3
2018-Jul-19 01:31N 35°24' E 139°39'510.0
2018-Jul-19 01:01N 35°20' E 139°43'612.1
2018-Jul-19 00:30N 35°15' E 139°47'816.6
2018-Jul-19 00:00N 35°07' E 139°45'1019.8
2018-Jul-18 23:30N 34°57' E 139°44'2514.7
2018-Jul-18 21:49N 35°01' E 140°14'2317.0
2018-Jul-18 20:26N 35°14' E 140°37'818.1
2018-Jul-18 20:00N 35°21' E 140°43'21 0.6
2018-Jul-17 11:42N 35°04' E 140°27'1722.5
2018-Jul-17 10:57N 34°57' E 140°09'1520.0
2018-Jul-17 10:14N 34°52' E 139°52'521.0
2018-Jul-17 10:01N 34°53' E 139°47'1019.5
2018-Jul-17 09:30N 35°02' E 139°43'917.8
2018-Jul-17 09:00N 35°11' E 139°46'611.6
2018-Jul-17 08:30N 35°17' E 139°45'611.9
2018-Jul-17 08:01N 35°22' E 139°42'816.4
2018-Jul-17 07:30N 35°29' E 139°48'2 4.0
2018-Jul-17 06:59N 35°30' E 139°46'0 0.0
2018-Jul-17 06:29N 35°30' E 139°46'0 0.0
2018-Jul-17 05:59N 35°30' E 139°46'0 0.0
2018-Jul-17 05:29N 35°30' E 139°46'0 0.0
2018-Jul-17 04:56N 35°30' E 139°46'0 0.0
2018-Jul-17 04:29N 35°30' E 139°46'0 0.0
2018-Jul-17 03:56N 35°30' E 139°46'0 0.0
2018-Jul-17 03:26N 35°30' E 139°46'0 0.0
2018-Jul-17 02:59N 35°30' E 139°46'0 0.3
2018-Jul-17 02:30N 35°30' E 139°46'4 7.3
2018-Jul-17 02:00N 35°28' E 139°42'511.0
2018-Jul-17 01:30N 35°23' E 139°40'1 2.4
2018-Jul-17 00:59N 35°23' E 139°39'0 0.0
2018-Jul-17 00:29N 35°23' E 139°39'0 0.0
2018-Jul-16 23:29N 35°23' E 139°39'0 0.2
2018-Jul-16 23:00N 35°23' E 139°39'3 6.9
2018-Jul-16 22:31N 35°21' E 139°42'713.1
2018-Jul-16 22:00N 35°16' E 139°46'714.2
2018-Jul-16 21:31N 35°09' E 139°46'917.9
2018-Jul-16 21:00N 35°01' E 139°41'917.9
2018-Jul-16 20:30N 34°55' E 139°33'10 0.3
2018-Jul-15 12:52N 34°45' E 139°36'719.0
2018-Jul-15 12:30N 34°52' E 139°39'918.4
2018-Jul-15 12:00N 35°01' E 139°41'816.6
2018-Jul-15 11:30N 35°08' E 139°44'713.5
2018-Jul-15 11:00N 35°15' E 139°46'611.6
2018-Jul-15 10:30N 35°20' E 139°43'4 8.8
2018-Jul-15 10:00N 35°24' E 139°39'0 0.9
2018-Jul-15 09:29N 35°23' E 139°39'0 0.0
2018-Jul-15 08:59N 35°23' E 139°39'0 0.0
2018-Jul-15 08:29N 35°23' E 139°39'0 0.0
2018-Jul-15 07:59N 35°23' E 139°39'0 0.0
2018-Jul-15 07:29N 35°23' E 139°39'0 0.0
2018-Jul-15 06:59N 35°23' E 139°39'0 0.0
2018-Jul-15 06:29N 35°23' E 139°39'0 0.0
2018-Jul-15 05:59N 35°23' E 139°39'0 0.0
2018-Jul-15 05:29N 35°23' E 139°39'0 0.0
2018-Jul-15 04:59N 35°23' E 139°39'0 0.0
2018-Jul-15 04:29N 35°23' E 139°39'1 2.1
2018-Jul-15 04:00N 35°24' E 139°40'917.5
2018-Jul-15 03:30N 35°28' E 139°49'1019.3
2018-Jul-15 03:00N 35°33' E 139°59'4 0.7
2018-Jul-14 21:36N 35°35' E 140°03'216.7
2018-Jul-14 21:30N 35°34' E 140°01'917.7
2018-Jul-14 21:00N 35°29' E 139°52'815.5
2018-Jul-14 20:30N 35°24' E 139°46'612.0
2018-Jul-14 20:00N 35°18' E 139°45'612.6
2018-Jul-14 19:30N 35°12' E 139°47'1019.3
2018-Jul-14 19:00N 35°03' E 139°41'1019.0
2018-Jul-14 18:30N 34°56' E 139°34'1120.5
2018-Jul-14 17:59N 34°51' E 139°22'4420.3
2018-Jul-14 15:50N 34°31' E 138°35'41 1.4
2018-Jul-13 11:46N 34°37' E 139°24'415.1
2018-Jul-13 11:29N 34°38' E 139°29'917.9
2018-Jul-13 11:00N 34°45' E 139°36'918.8
2018-Jul-13 10:31N 34°53' E 139°39'917.9
2018-Jul-13 10:01N 35°02' E 139°41'816.7
2018-Jul-13 09:30N 35°10' E 139°45'612.9
2018-Jul-13 09:00N 35°16' E 139°45'713.2
2018-Jul-13 08:30N 35°22' E 139°41'2 4.6
2018-Jul-13 07:59N 35°23' E 139°39'0 0.0
2018-Jul-13 07:30N 35°23' E 139°39'0 0.0
2018-Jul-13 07:00N 35°23' E 139°39'0 0.0
2018-Jul-13 06:30N 35°23' E 139°39'0 0.0
2018-Jul-13 06:00N 35°23' E 139°39'0 0.0
2018-Jul-13 05:30N 35°23' E 139°39'0 0.0
2018-Jul-13 05:00N 35°23' E 139°39'0 0.0
2018-Jul-13 04:30N 35°23' E 139°39'0 0.0
2018-Jul-13 04:00N 35°23' E 139°39'0 0.0
2018-Jul-13 03:30N 35°23' E 139°39'0 0.0
2018-Jul-13 03:00N 35°23' E 139°39'0 0.0
2018-Jul-13 02:30N 35°23' E 139°39'0 0.0
2018-Jul-13 02:00N 35°23' E 139°39'0 0.0
2018-Jul-13 01:30N 35°23' E 139°39'0 0.0
2018-Jul-13 01:00N 35°23' E 139°39'0 0.0
2018-Jul-13 00:30N 35°23' E 139°39'0 0.0
2018-Jul-13 00:00N 35°23' E 139°39'0 0.0
2018-Jul-12 23:30N 35°23' E 139°39'0 0.0
2018-Jul-12 23:00N 35°23' E 139°39'0 0.0
2018-Jul-12 22:30N 35°23' E 139°39'2 3.8
2018-Jul-12 22:00N 35°23' E 139°41'510.9
2018-Jul-12 21:30N 35°18' E 139°44'611.7
2018-Jul-12 21:01N 35°13' E 139°47'918.0
2018-Jul-12 20:30N 35°04' E 139°44'916.9
2018-Jul-12 19:59N 34°55' E 139°45'1314.0
2018-Jul-12 19:03N 34°54' E 140°01'215.7
2018-Jul-12 18:54N 34°55' E 140°03'917.2
2018-Jul-12 18:22N 35°00' E 140°12'718.3
2018-Jul-12 18:00N 35°04' E 140°19'  

Dump ship's entire track history